sensor_id;sensor_type;location;lat;lon;timestamp;pressure;altitude;pressure_sealevel;temperature
49154;BMP280;49455;52.252;9.124;2022-09-09T06:52:46;98906.50;;;15.38
49154;BMP280;49455;52.252;9.124;2022-09-09T06:57:46;98907.28;;;15.59
49154;BMP280;49455;52.252;9.124;2022-09-09T07:02:51;98914.06;;;15.87
49154;BMP280;49455;52.252;9.124;2022-09-09T07:07:52;98914.81;;;16.12
49154;BMP280;49455;52.252;9.124;2022-09-09T07:12:54;98911.28;;;16.19
49154;BMP280;49455;52.252;9.124;2022-09-09T07:18:00;98916.50;;;16.18
49154;BMP280;49455;52.252;9.124;2022-09-09T07:23:01;98912.19;;;16.15
49154;BMP280;49455;52.252;9.124;2022-09-09T07:28:02;98916.38;;;16.37
49154;BMP280;49455;52.252;9.124;2022-09-09T07:33:03;98912.72;;;16.56
49154;BMP280;49455;52.252;9.124;2022-09-09T07:38:04;98917.72;;;16.79
49154;BMP280;49455;52.252;9.124;2022-09-09T07:43:05;98925.53;;;16.82
49154;BMP280;49455;52.252;9.124;2022-09-09T07:48:05;98937.53;;;17.01
49154;BMP280;49455;52.252;9.124;2022-09-09T07:53:06;98921.84;;;17.04
49154;BMP280;49455;52.252;9.124;2022-09-09T07:58:07;98934.81;;;17.10
49154;BMP280;49455;52.252;9.124;2022-09-09T08:03:07;98936.38;;;17.28
49154;BMP280;49455;52.252;9.124;2022-09-09T08:08:08;98932.72;;;17.44
49154;BMP280;49455;52.252;9.124;2022-09-09T08:13:09;98938.56;;;17.64
49154;BMP280;49455;52.252;9.124;2022-09-09T08:18:09;98935.78;;;17.77
49154;BMP280;49455;52.252;9.124;2022-09-09T08:23:10;98937.25;;;17.96
49154;BMP280;49455;52.252;9.124;2022-09-09T08:28:10;98931.03;;;18.06
49154;BMP280;49455;52.252;9.124;2022-09-09T08:33:11;98932.84;;;17.98
49154;BMP280;49455;52.252;9.124;2022-09-09T08:38:11;98932.78;;;18.07
49154;BMP280;49455;52.252;9.124;2022-09-09T08:43:13;98937.81;;;18.20
49154;BMP280;49455;52.252;9.124;2022-09-09T08:48:35;98933.34;;;18.25
49154;BMP280;49455;52.252;9.124;2022-09-09T08:53:44;98942.19;;;18.17
49154;BMP280;49455;52.252;9.124;2022-09-09T08:58:49;98945.75;;;18.11
49154;BMP280;49455;52.252;9.124;2022-09-09T09:14:22;98956.13;;;18.17
49154;BMP280;49455;52.252;9.124;2022-09-09T09:19:25;98949.38;;;18.61
49154;BMP280;49455;52.252;9.124;2022-09-09T09:24:49;98947.81;;;19.02
49154;BMP280;49455;52.252;9.124;2022-09-09T09:29:54;98943.34;;;19.51
49154;BMP280;49455;52.252;9.124;2022-09-09T09:34:58;98935.97;;;19.69
49154;BMP280;49455;52.252;9.124;2022-09-09T09:40:13;98928.25;;;19.62
49154;BMP280;49455;52.252;9.124;2022-09-09T09:45:20;98919.19;;;19.36
49154;BMP280;49455;52.252;9.124;2022-09-09T09:50:26;98919.34;;;19.29
49154;BMP280;49455;52.252;9.124;2022-09-09T09:55:28;98914.84;;;19.78
49154;BMP280;49455;52.252;9.124;2022-09-09T10:00:30;98899.00;;;20.20
49154;BMP280;49455;52.252;9.124;2022-09-09T10:05:45;98906.47;;;20.00
49154;BMP280;49455;52.252;9.124;2022-09-09T10:16:13;98908.28;;;20.70
49154;BMP280;49455;52.252;9.124;2022-09-09T10:21:31;98907.84;;;21.20
49154;BMP280;49455;52.252;9.124;2022-09-09T10:26:51;98910.28;;;21.25
49154;BMP280;49455;52.252;9.124;2022-09-09T10:38:10;98900.97;;;22.04
49154;BMP280;49455;52.252;9.124;2022-09-09T10:43:38;98907.84;;;21.81
49154;BMP280;49455;52.252;9.124;2022-09-09T10:59:31;98911.31;;;20.56
49154;BMP280;49455;52.252;9.124;2022-09-09T11:04:43;98925.53;;;20.08
49154;BMP280;49455;52.252;9.124;2022-09-09T11:09:51;98920.59;;;19.53
49154;BMP280;49455;52.252;9.124;2022-09-09T11:20:05;98918.47;;;19.70
49154;BMP280;49455;52.252;9.124;2022-09-09T11:25:21;98923.28;;;19.92
49154;BMP280;49455;52.252;9.124;2022-09-09T11:30:28;98913.31;;;20.43
49154;BMP280;49455;52.252;9.124;2022-09-09T11:40:38;98901.19;;;21.68
49154;BMP280;49455;52.252;9.124;2022-09-09T11:45:41;98901.25;;;21.95
49154;BMP280;49455;52.252;9.124;2022-09-09T11:50:42;98906.13;;;22.36
49154;BMP280;49455;52.252;9.124;2022-09-09T11:55:42;98899.03;;;21.82
49154;BMP280;49455;52.252;9.124;2022-09-09T12:00:48;98888.13;;;22.49
49154;BMP280;49455;52.252;9.124;2022-09-09T12:05:50;98883.56;;;22.54
49154;BMP280;49455;52.252;9.124;2022-09-09T12:10:56;98878.72;;;22.68
49154;BMP280;49455;52.252;9.124;2022-09-09T12:15:59;98887.41;;;22.44
49154;BMP280;49455;52.252;9.124;2022-09-09T12:26:47;98886.00;;;23.11
49154;BMP280;49455;52.252;9.124;2022-09-09T12:32:16;98885.72;;;23.19
49154;BMP280;49455;52.252;9.124;2022-09-09T12:37:37;98878.47;;;23.72
49154;BMP280;49455;52.252;9.124;2022-09-09T12:42:40;98877.84;;;22.68
49154;BMP280;49455;52.252;9.124;2022-09-09T12:53:22;98875.44;;;22.62
49154;BMP280;49455;52.252;9.124;2022-09-09T12:58:23;98864.50;;;22.72
49154;BMP280;49455;52.252;9.124;2022-09-09T13:03:24;98865.16;;;22.27
49154;BMP280;49455;52.252;9.124;2022-09-09T13:08:24;98866.69;;;21.79
49154;BMP280;49455;52.252;9.124;2022-09-09T13:13:40;98873.41;;;22.70
49154;BMP280;49455;52.252;9.124;2022-09-09T13:18:41;98870.16;;;22.87
49154;BMP280;49455;52.252;9.124;2022-09-09T13:23:41;98864.34;;;22.25
49154;BMP280;49455;52.252;9.124;2022-09-09T13:28:42;98856.78;;;22.93
49154;BMP280;49455;52.252;9.124;2022-09-09T13:33:42;98838.22;;;23.20
49154;BMP280;49455;52.252;9.124;2022-09-09T13:38:53;98835.88;;;23.36
49154;BMP280;49455;52.252;9.124;2022-09-09T13:43:54;98838.63;;;22.86
49154;BMP280;49455;52.252;9.124;2022-09-09T13:49:37;98838.28;;;22.95
49154;BMP280;49455;52.252;9.124;2022-09-09T13:54:20;98837.59;;;22.64
49154;BMP280;49455;52.252;9.124;2022-09-09T13:59:20;98830.13;;;22.25
49154;BMP280;49455;52.252;9.124;2022-09-09T14:04:21;98817.69;;;22.30
49154;BMP280;49455;52.252;9.124;2022-09-09T14:09:21;98817.81;;;21.99
49154;BMP280;49455;52.252;9.124;2022-09-09T14:14:21;98805.97;;;21.86
49154;BMP280;49455;52.252;9.124;2022-09-09T14:19:22;98813.91;;;21.84
49154;BMP280;49455;52.252;9.124;2022-09-09T14:24:22;98813.16;;;22.35
49154;BMP280;49455;52.252;9.124;2022-09-09T14:29:23;98816.50;;;21.86
49154;BMP280;49455;52.252;9.124;2022-09-09T14:34:23;98820.13;;;21.82
49154;BMP280;49455;52.252;9.124;2022-09-09T14:39:24;98821.34;;;21.71
49154;BMP280;49455;52.252;9.124;2022-09-09T14:44:24;98827.34;;;22.03
49154;BMP280;49455;52.252;9.124;2022-09-09T14:49:24;98823.47;;;21.87
49154;BMP280;49455;52.252;9.124;2022-09-09T14:54:25;98823.31;;;22.20
49154;BMP280;49455;52.252;9.124;2022-09-09T14:59:25;98829.09;;;23.06
49154;BMP280;49455;52.252;9.124;2022-09-09T15:04:26;98814.44;;;23.44
49154;BMP280;49455;52.252;9.124;2022-09-09T15:09:26;98811.84;;;23.67
49154;BMP280;49455;52.252;9.124;2022-09-09T15:14:26;98811.75;;;23.70
49154;BMP280;49455;52.252;9.124;2022-09-09T15:19:27;98815.13;;;23.95
49154;BMP280;49455;52.252;9.124;2022-09-09T15:24:27;98811.81;;;23.90
49154;BMP280;49455;52.252;9.124;2022-09-09T15:29:28;98809.06;;;23.25
49154;BMP280;49455;52.252;9.124;2022-09-09T15:34:28;98811.38;;;22.61
49154;BMP280;49455;52.252;9.124;2022-09-09T15:39:29;98813.75;;;22.43
49154;BMP280;49455;52.252;9.124;2022-09-09T15:44:29;98817.59;;;22.06
49154;BMP280;49455;52.252;9.124;2022-09-09T15:49:29;98814.41;;;21.70
49154;BMP280;49455;52.252;9.124;2022-09-09T15:54:35;98816.72;;;21.50
49154;BMP280;49455;52.252;9.124;2022-09-09T15:59:35;98816.72;;;21.50
49154;BMP280;49455;52.252;9.124;2022-09-09T16:04:36;98805.63;;;21.41
49154;BMP280;49455;52.252;9.124;2022-09-09T16:09:36;98815.16;;;21.45
49154;BMP280;49455;52.252;9.124;2022-09-09T16:14:37;98819.91;;;21.31
49154;BMP280;49455;52.252;9.124;2022-09-09T16:19:37;98817.16;;;21.37
49154;BMP280;49455;52.252;9.124;2022-09-09T16:24:38;98811.88;;;21.65
49154;BMP280;49455;52.252;9.124;2022-09-09T16:29:38;98802.63;;;21.81
49154;BMP280;49455;52.252;9.124;2022-09-09T16:34:38;98812.44;;;22.30
49154;BMP280;49455;52.252;9.124;2022-09-09T16:39:39;98808.94;;;22.30
49154;BMP280;49455;52.252;9.124;2022-09-09T16:44:39;98812.03;;;22.16
49154;BMP280;49455;52.252;9.124;2022-09-09T16:49:40;98815.88;;;21.78
49154;BMP280;49455;52.252;9.124;2022-09-09T16:54:40;98821.38;;;21.42
49154;BMP280;49455;52.252;9.124;2022-09-09T16:59:40;98829.47;;;21.35
49154;BMP280;49455;52.252;9.124;2022-09-09T17:04:41;98826.94;;;21.30
49154;BMP280;49455;52.252;9.124;2022-09-09T17:09:41;98831.00;;;21.12
49154;BMP280;49455;52.252;9.124;2022-09-09T17:14:42;98834.06;;;20.95
49154;BMP280;49455;52.252;9.124;2022-09-09T17:19:42;98841.56;;;20.79
49154;BMP280;49455;52.252;9.124;2022-09-09T17:24:42;98845.69;;;20.53
49154;BMP280;49455;52.252;9.124;2022-09-09T17:29:43;98857.72;;;20.64
49154;BMP280;49455;52.252;9.124;2022-09-09T17:34:43;98896.97;;;19.97
49154;BMP280;49455;52.252;9.124;2022-09-09T17:39:44;98899.25;;;19.29
49154;BMP280;49455;52.252;9.124;2022-09-09T17:44:44;98913.88;;;18.96
49154;BMP280;49455;52.252;9.124;2022-09-09T17:49:45;98909.78;;;18.78
49154;BMP280;49455;52.252;9.124;2022-09-09T17:54:45;98922.81;;;18.31
49154;BMP280;49455;52.252;9.124;2022-09-09T17:59:45;98954.66;;;17.98
49154;BMP280;49455;52.252;9.124;2022-09-09T18:04:46;98961.50;;;17.40
49154;BMP280;49455;52.252;9.124;2022-09-09T18:09:46;98964.63;;;16.84
49154;BMP280;49455;52.252;9.124;2022-09-09T18:14:47;98969.28;;;16.46
49154;BMP280;49455;52.252;9.124;2022-09-09T18:19:48;98964.22;;;16.33
49154;BMP280;49455;52.252;9.124;2022-09-09T18:24:48;98953.72;;;16.39
49154;BMP280;49455;52.252;9.124;2022-09-09T18:29:48;98961.69;;;16.15
49154;BMP280;49455;52.252;9.124;2022-09-09T18:34:49;98965.19;;;16.17
49154;BMP280;49455;52.252;9.124;2022-09-09T18:39:49;98971.97;;;16.39
49154;BMP280;49455;52.252;9.124;2022-09-09T18:44:52;98971.09;;;16.35
49154;BMP280;49455;52.252;9.124;2022-09-09T18:49:53;98973.75;;;16.33
49154;BMP280;49455;52.252;9.124;2022-09-09T18:54:53;98968.56;;;16.31
49154;BMP280;49455;52.252;9.124;2022-09-09T18:59:54;98962.44;;;16.35
49154;BMP280;49455;52.252;9.124;2022-09-09T19:04:54;98961.66;;;16.21
49154;BMP280;49455;52.252;9.124;2022-09-09T19:09:54;98959.88;;;16.31
49154;BMP280;49455;52.252;9.124;2022-09-09T19:14:55;98967.81;;;16.13
49154;BMP280;49455;52.252;9.124;2022-09-09T19:19:55;98975.63;;;16.02
49154;BMP280;49455;52.252;9.124;2022-09-09T19:24:56;98982.63;;;16.01
49154;BMP280;49455;52.252;9.124;2022-09-09T19:29:56;98994.03;;;15.79
49154;BMP280;49455;52.252;9.124;2022-09-09T19:34:57;99004.47;;;15.69
49154;BMP280;49455;52.252;9.124;2022-09-09T19:39:57;98997.53;;;15.69
49154;BMP280;49455;52.252;9.124;2022-09-09T19:44:57;99001.81;;;15.82
49154;BMP280;49455;52.252;9.124;2022-09-09T19:49:58;98996.63;;;15.76
49154;BMP280;49455;52.252;9.124;2022-09-09T19:54:58;99000.09;;;15.75
49154;BMP280;49455;52.252;9.124;2022-09-09T19:59:59;98995.81;;;15.64
49154;BMP280;49455;52.252;9.124;2022-09-09T20:04:59;98988.00;;;15.68
49154;BMP280;49455;52.252;9.124;2022-09-09T20:09:59;98986.25;;;15.64
49154;BMP280;49455;52.252;9.124;2022-09-09T20:15:03;98989.69;;;15.68
49154;BMP280;49455;52.252;9.124;2022-09-09T20:20:03;98987.19;;;15.50
49154;BMP280;49455;52.252;9.124;2022-09-09T20:25:04;98994.09;;;15.63
49154;BMP280;49455;52.252;9.124;2022-09-09T20:30:05;98995.81;;;15.62
49154;BMP280;49455;52.252;9.124;2022-09-09T20:35:06;98988.91;;;15.52
49154;BMP280;49455;52.252;9.124;2022-09-09T20:40:07;98988.91;;;15.43
49154;BMP280;49455;52.252;9.124;2022-09-09T20:45:07;98995.91;;;15.36
49154;BMP280;49455;52.252;9.124;2022-09-09T20:50:08;99001.13;;;15.25
49154;BMP280;49455;52.252;9.124;2022-09-09T20:55:08;99000.28;;;15.17
49154;BMP280;49455;52.252;9.124;2022-09-09T21:00:09;99007.22;;;15.10
49154;BMP280;49455;52.252;9.124;2022-09-09T21:05:10;99007.22;;;14.99
49154;BMP280;49455;52.252;9.124;2022-09-09T21:10:10;99008.97;;;15.00
49154;BMP280;49455;52.252;9.124;2022-09-09T21:15:11;99002.91;;;14.95
49154;BMP280;49455;52.252;9.124;2022-09-09T21:20:11;99004.59;;;14.96
49154;BMP280;49455;52.252;9.124;2022-09-09T21:25:12;99003.75;;;14.88
49154;BMP280;49455;52.252;9.124;2022-09-09T21:30:12;99012.41;;;14.83
49154;BMP280;49455;52.252;9.124;2022-09-09T21:35:13;99023.72;;;14.79
49154;BMP280;49455;52.252;9.124;2022-09-09T21:40:13;99029.75;;;14.82
49154;BMP280;49455;52.252;9.124;2022-09-09T21:45:14;99040.19;;;14.77
49154;BMP280;49455;52.252;9.124;2022-09-09T21:50:14;99042.75;;;14.78
49154;BMP280;49455;52.252;9.124;2022-09-09T21:55:15;99045.38;;;14.74
49154;BMP280;49455;52.252;9.124;2022-09-09T22:00:15;99045.38;;;14.68
49154;BMP280;49455;52.252;9.124;2022-09-09T22:05:16;99052.31;;;14.69
49154;BMP280;49455;52.252;9.124;2022-09-09T22:10:17;99054.03;;;14.73
49154;BMP280;49455;52.252;9.124;2022-09-09T22:15:18;99048.81;;;14.76
49154;BMP280;49455;52.252;9.124;2022-09-09T22:20:18;99042.78;;;14.77
49154;BMP280;49455;52.252;9.124;2022-09-09T22:25:19;99054.06;;;14.79
49154;BMP280;49455;52.252;9.124;2022-09-09T22:30:19;99040.16;;;14.75
49154;BMP280;49455;52.252;9.124;2022-09-09T22:35:19;99047.09;;;14.69
49154;BMP280;49455;52.252;9.124;2022-09-09T22:40:20;99042.78;;;14.68
49154;BMP280;49455;52.252;9.124;2022-09-09T22:45:21;99047.97;;;14.72
49154;BMP280;49455;52.252;9.124;2022-09-09T22:50:21;99053.19;;;14.74
49154;BMP280;49455;52.252;9.124;2022-09-09T22:55:21;99059.25;;;14.68
49154;BMP280;49455;52.252;9.124;2022-09-09T23:00:23;99054.88;;;14.64
49154;BMP280;49455;52.252;9.124;2022-09-09T23:05:24;99056.63;;;14.73
49154;BMP280;49455;52.252;9.124;2022-09-09T23:10:24;99061.84;;;14.79
